createdAt,value
2022-12-20T00:00:18.440Z,79.93
2022-12-20T00:01:21.063Z,80.37
2022-12-20T00:02:18.372Z,81.19
2022-12-20T00:03:15.364Z,81.13
2022-12-20T00:04:12.800Z,81.66
2022-12-20T00:05:09.428Z,81.66
2022-12-20T00:06:06.334Z,82.48
2022-12-20T00:07:02.933Z,82.50
2022-12-20T00:07:59.498Z,81.89
2022-12-20T00:09:01.371Z,80.95
2022-12-20T00:09:58.056Z,80.50
2022-12-20T00:10:54.797Z,79.88
2022-12-20T00:11:51.586Z,79.45
2022-12-20T00:12:48.454Z,79.13
2022-12-20T00:13:47.068Z,79.50
2022-12-20T00:14:43.650Z,79.74
2022-12-20T00:15:40.303Z,80.38
2022-12-20T00:16:37.708Z,81.24
2022-12-20T00:17:34.493Z,81.85
2022-12-20T00:18:31.129Z,81.36
2022-12-20T00:19:27.752Z,81.42
2022-12-20T00:20:25.190Z,81.84
2022-12-20T00:21:22.960Z,81.92
2022-12-20T00:22:19.698Z,81.65
2022-12-20T00:23:16.261Z,81.64
2022-12-20T00:24:12.937Z,82.07
2022-12-20T00:25:09.739Z,81.87
2022-12-20T00:26:15.392Z,80.70
2022-12-20T00:27:11.981Z,80.25
2022-12-20T00:28:08.639Z,79.74
2022-12-20T00:29:06.106Z,80.37
2022-12-20T00:30:03.353Z,80.26
2022-12-20T00:31:00.583Z,81.10
2022-12-20T00:31:57.228Z,81.52
2022-12-20T00:32:53.960Z,81.80
2022-12-20T00:33:53.225Z,82.21
2022-12-20T00:34:49.792Z,82.00
2022-12-20T00:35:46.434Z,82.09
2022-12-20T00:36:43.160Z,81.65
2022-12-20T00:37:39.984Z,81.26
2022-12-20T00:38:36.921Z,80.50
2022-12-20T00:39:33.527Z,80.12
2022-12-20T00:40:30.191Z,79.81
2022-12-20T00:41:29.900Z,80.10
2022-12-20T00:42:26.598Z,79.85
2022-12-20T00:43:23.147Z,80.01
2022-12-20T00:44:19.755Z,79.50
2022-12-20T00:45:16.677Z,79.82
2022-12-20T00:46:14.603Z,79.69
2022-12-20T00:47:11.268Z,79.21
2022-12-20T00:48:07.928Z,79.77
2022-12-20T00:49:04.576Z,80.05
2022-12-20T00:50:01.183Z,80.37
2022-12-20T00:50:59.914Z,79.71
2022-12-20T00:51:56.485Z,80.25
2022-12-20T00:52:53.091Z,80.91
2022-12-20T00:53:50.170Z,80.54
2022-12-20T00:54:46.890Z,80.40
2022-12-20T00:55:46.415Z,79.71
2022-12-20T00:56:43.185Z,80.15
2022-12-20T00:57:40.167Z,80.03
2022-12-20T00:58:38.804Z,79.27
2022-12-20T00:59:35.481Z,78.12
2022-12-20T01:00:32.211Z,78.37
2022-12-20T01:01:31.855Z,78.51
2022-12-20T01:02:28.644Z,79.83
2022-12-20T01:03:26.677Z,80.69
2022-12-20T01:04:23.643Z,79.76
2022-12-20T01:05:20.292Z,79.65
2022-12-20T01:06:17.599Z,79.98
2022-12-20T01:07:14.598Z,79.99
2022-12-20T01:08:11.354Z,80.01
2022-12-20T01:09:08.101Z,80.07
2022-12-20T01:10:05.038Z,80.20
2022-12-20T01:11:23.753Z,80.58
2022-12-20T01:12:20.347Z,80.49
2022-12-20T01:13:16.986Z,80.42
2022-12-20T01:14:16.483Z,80.30
2022-12-20T01:15:13.481Z,79.84
2022-12-20T01:16:14.707Z,79.81
2022-12-20T01:17:11.368Z,78.93
2022-12-20T01:18:08.007Z,78.98
2022-12-20T01:19:05.888Z,79.22
2022-12-20T01:20:04.713Z,79.46
2022-12-20T01:21:06.883Z,79.69
2022-12-20T01:22:03.917Z,79.61
2022-12-20T01:23:00.474Z,79.16
2022-12-20T01:23:57.535Z,79.98
2022-12-20T01:24:54.136Z,79.84
2022-12-20T01:25:51.525Z,79.41
2022-12-20T01:26:48.551Z,78.51
2022-12-20T01:27:45.278Z,77.93
2022-12-20T01:28:45.352Z,78.89
2022-12-20T01:29:41.985Z,78.63
2022-12-20T01:30:41.409Z,79.20
2022-12-20T01:31:38.305Z,79.62
2022-12-20T01:32:35.042Z,79.22
2022-12-20T01:33:31.634Z,79.70
2022-12-20T01:34:28.232Z,79.75
2022-12-20T01:35:24.865Z,79.94
2022-12-20T01:36:27.836Z,80.00
2022-12-20T01:37:24.491Z,80.32
2022-12-20T01:38:21.110Z,81.23
2022-12-20T01:39:17.800Z,80.64
2022-12-20T01:40:14.539Z,80.20
2022-12-20T01:41:17.170Z,79.25
2022-12-20T01:42:15.186Z,79.76
2022-12-20T01:43:15.242Z,80.66
2022-12-20T01:44:17.861Z,80.58
2022-12-20T01:45:23.081Z,81.00
2022-12-20T01:46:23.065Z,80.93
2022-12-20T01:47:19.877Z,81.82
2022-12-20T01:48:21.799Z,82.22
2022-12-20T01:49:30.367Z,82.13
2022-12-20T01:50:27.074Z,82.10
2022-12-20T01:51:24.669Z,81.77
2022-12-20T01:52:43.150Z,81.81
2022-12-20T01:53:39.822Z,82.18
2022-12-20T01:54:59.380Z,82.18
2022-12-20T01:55:56.005Z,82.36
2022-12-20T01:56:57.948Z,82.56
2022-12-20T01:58:01.179Z,82.86
2022-12-20T01:58:58.557Z,83.13
2022-12-20T01:59:56.878Z,82.79
2022-12-20T02:00:53.670Z,83.18
2022-12-20T02:01:50.526Z,83.15
2022-12-20T02:02:49.401Z,83.33
2022-12-20T02:03:47.206Z,82.86
2022-12-20T02:04:43.855Z,83.00
2022-12-20T02:05:47.393Z,83.22
2022-12-20T02:06:44.173Z,82.90
2022-12-20T02:07:42.688Z,82.88
2022-12-20T02:08:39.451Z,83.35
2022-12-20T02:09:38.387Z,83.23
2022-12-20T02:11:04.405Z,83.57
2022-12-20T02:12:14.446Z,82.50
2022-12-20T02:13:25.163Z,81.54
2022-12-20T02:14:51.288Z,82.02
2022-12-20T02:15:55.255Z,81.97
2022-12-20T02:17:33.174Z,81.85
2022-12-20T02:18:43.413Z,82.77
2022-12-20T02:19:39.983Z,83.20
2022-12-20T02:20:45.771Z,83.35
2022-12-20T02:22:22.012Z,83.53
2022-12-20T02:23:55.878Z,82.99
2022-12-20T02:25:14.061Z,82.50
2022-12-20T02:26:16.525Z,81.61
2022-12-20T02:27:17.213Z,81.57
2022-12-20T02:28:19.774Z,81.82
2022-12-20T02:29:30.050Z,82.11
2022-12-20T02:30:33.042Z,82.69
2022-12-20T02:31:38.169Z,82.46
2022-12-20T02:32:46.801Z,83.06
2022-12-20T02:33:48.112Z,82.52
2022-12-20T02:34:45.195Z,82.01
2022-12-20T02:35:42.794Z,82.05
2022-12-20T02:36:39.868Z,82.01
2022-12-20T02:37:36.702Z,81.90
2022-12-20T02:38:38.247Z,82.36
2022-12-20T02:39:37.834Z,82.55
2022-12-20T02:40:41.391Z,82.58
2022-12-20T02:41:43.867Z,81.99
2022-12-20T02:42:40.332Z,82.59
2022-12-20T02:43:59.250Z,81.77
2022-12-20T02:45:17.749Z,81.16
2022-12-20T02:46:16.758Z,81.41
2022-12-20T02:47:21.386Z,81.43
2022-12-20T02:48:18.765Z,82.00
2022-12-20T02:49:20.504Z,81.86
2022-12-20T02:50:22.871Z,82.05
2022-12-20T02:51:22.173Z,82.88
2022-12-20T02:52:22.533Z,82.66
2022-12-20T02:53:19.249Z,82.08
2022-12-20T02:54:17.335Z,82.93
2022-12-20T02:55:14.230Z,82.80
2022-12-20T02:56:15.533Z,82.68
2022-12-20T02:57:20.967Z,82.89
2022-12-20T02:58:30.505Z,82.78
2022-12-20T02:59:36.542Z,82.70
2022-12-20T03:00:41.065Z,83.13
2022-12-20T03:01:52.916Z,82.94
2022-12-20T03:03:09.632Z,82.52
2022-12-20T03:04:08.176Z,81.91
2022-12-20T03:05:05.961Z,82.51
2022-12-20T03:06:02.648Z,82.63
2022-12-20T03:07:02.137Z,83.21
2022-12-20T03:07:58.867Z,83.17
2022-12-20T03:08:55.427Z,82.71
2022-12-20T03:09:52.186Z,82.64
2022-12-20T03:10:51.393Z,83.20
2022-12-20T03:11:48.046Z,83.37
2022-12-20T03:12:44.626Z,82.81
2022-12-20T03:13:41.520Z,83.54
2022-12-20T03:14:38.986Z,83.24
2022-12-20T03:15:36.110Z,83.16
2022-12-20T03:16:32.848Z,83.11
2022-12-20T03:17:29.522Z,83.19
2022-12-20T03:18:26.159Z,83.30
2022-12-20T03:19:23.220Z,83.57
2022-12-20T03:20:19.768Z,83.36
2022-12-20T03:21:16.381Z,82.40
2022-12-20T03:22:13.021Z,82.15
2022-12-20T03:23:10.011Z,82.27
2022-12-20T03:24:06.987Z,82.69
2022-12-20T03:25:03.836Z,83.33
2022-12-20T03:26:00.423Z,83.36
2022-12-20T03:26:57.017Z,83.34
2022-12-20T03:27:53.674Z,83.29
2022-12-20T03:28:50.540Z,83.49
2022-12-20T03:29:47.148Z,83.14
2022-12-20T03:30:43.943Z,83.17
2022-12-20T03:31:40.639Z,83.29
2022-12-20T03:32:37.308Z,83.01
2022-12-20T03:33:34.005Z,83.11
2022-12-20T03:34:30.623Z,83.29
2022-12-20T03:35:27.246Z,83.52
2022-12-20T03:36:24.527Z,83.23
2022-12-20T03:37:21.839Z,83.64
2022-12-20T03:38:18.562Z,83.87
2022-12-20T03:39:15.193Z,83.96
2022-12-20T03:40:12.403Z,84.09
2022-12-20T03:41:09.104Z,83.90
2022-12-20T03:42:05.923Z,83.63
2022-12-20T03:43:02.555Z,83.56
2022-12-20T03:43:59.228Z,83.28
2022-12-20T03:44:55.962Z,83.71
2022-12-20T03:45:52.651Z,84.17
2022-12-20T03:46:49.380Z,84.39
2022-12-20T03:47:46.211Z,84.65
2022-12-20T03:48:43.358Z,84.21
2022-12-20T03:49:39.966Z,84.22
2022-12-20T03:50:37.325Z,84.56
2022-12-20T03:51:34.037Z,84.50
2022-12-20T03:52:30.812Z,84.61
2022-12-20T03:53:27.448Z,84.15
2022-12-20T03:54:24.025Z,84.09
2022-12-20T03:55:20.658Z,83.54
2022-12-20T03:56:17.290Z,83.81
2022-12-20T03:57:14.052Z,83.71
2022-12-20T03:58:10.673Z,83.94
2022-12-20T03:59:07.286Z,84.31
2022-12-20T04:00:04.343Z,84.76
2022-12-20T04:01:01.244Z,85.00
2022-12-20T04:01:58.005Z,85.37
2022-12-20T04:02:54.897Z,85.54
2022-12-20T04:03:51.952Z,85.88
2022-12-20T04:04:49.323Z,86.27
2022-12-20T04:05:46.044Z,85.84
2022-12-20T04:06:43.072Z,86.56
2022-12-20T04:07:39.796Z,87.01
2022-12-20T04:08:36.496Z,86.54
2022-12-20T04:09:33.168Z,86.78
2022-12-20T04:10:29.771Z,85.73
2022-12-20T04:11:26.488Z,85.75
2022-12-20T04:12:23.230Z,85.93
2022-12-20T04:13:20.014Z,85.76
2022-12-20T04:14:16.766Z,85.00
2022-12-20T04:15:13.364Z,85.10
2022-12-20T04:16:10.941Z,85.76
2022-12-20T04:17:07.734Z,86.30
2022-12-20T04:18:04.356Z,86.72
2022-12-20T04:19:01.004Z,87.22
2022-12-20T04:19:57.608Z,87.14
2022-12-20T04:20:54.987Z,87.41
2022-12-20T04:21:51.852Z,87.31
2022-12-20T04:22:50.859Z,87.21
2022-12-20T04:23:47.433Z,87.56
2022-12-20T04:24:44.095Z,87.57
2022-12-20T04:25:40.829Z,87.85
2022-12-20T04:26:37.868Z,87.78
2022-12-20T04:27:34.451Z,87.67
2022-12-20T04:28:31.771Z,88.10
2022-12-20T04:29:28.441Z,87.73
2022-12-20T04:30:25.862Z,88.05
2022-12-20T04:31:24.376Z,88.21
2022-12-20T04:32:21.299Z,88.57
2022-12-20T04:33:18.041Z,88.40
2022-12-20T04:34:14.724Z,88.57
2022-12-20T04:35:11.500Z,88.33
2022-12-20T04:36:08.246Z,88.00
2022-12-20T04:37:04.903Z,87.53
2022-12-20T04:38:01.512Z,88.40
2022-12-20T04:38:58.104Z,88.84
2022-12-20T04:39:55.542Z,88.58
2022-12-20T04:40:53.928Z,88.58
2022-12-20T04:41:50.503Z,88.71
2022-12-20T04:42:47.121Z,89.55
2022-12-20T04:43:43.711Z,89.71
2022-12-20T04:44:40.387Z,89.29
2022-12-20T04:45:36.987Z,89.79
2022-12-20T04:46:33.755Z,89.87
2022-12-20T04:47:30.466Z,90.02
2022-12-20T04:49:45.460Z,89.62
2022-12-20T04:50:42.477Z,90.01
2022-12-20T04:51:39.052Z,90.18
2022-12-20T04:52:53.986Z,90.72
2022-12-20T04:53:50.700Z,90.50
2022-12-20T04:54:47.878Z,91.04
2022-12-20T04:55:44.512Z,90.54
2022-12-20T04:56:41.184Z,90.77
2022-12-20T04:57:37.772Z,90.76
2022-12-20T04:58:34.594Z,90.65
2022-12-20T04:59:31.276Z,90.94
2022-12-20T05:00:27.835Z,89.93
2022-12-20T05:01:25.023Z,90.79
2022-12-20T05:02:21.891Z,90.41
2022-12-20T05:03:19.963Z,89.58
2022-12-20T05:04:16.768Z,90.32
2022-12-20T05:05:14.191Z,89.77
2022-12-20T05:06:11.656Z,89.72
2022-12-20T05:07:08.451Z,89.98
2022-12-20T05:08:05.236Z,90.30
2022-12-20T05:09:01.810Z,90.11
2022-12-20T05:09:58.346Z,90.49
2022-12-20T05:10:54.978Z,90.05
2022-12-20T05:11:51.616Z,90.71
2022-12-20T05:12:48.560Z,90.41
2022-12-20T05:13:45.155Z,90.51
2022-12-20T05:14:41.797Z,90.26
2022-12-20T05:15:38.578Z,90.70
2022-12-20T05:16:35.736Z,90.83
2022-12-20T05:17:34.242Z,90.78
2022-12-20T05:18:31.805Z,90.29
2022-12-20T05:19:28.414Z,90.53
2022-12-20T05:20:31.940Z,89.86
2022-12-20T05:21:46.966Z,89.95
2022-12-20T05:23:02.418Z,89.31
2022-12-20T05:24:17.650Z,88.96
2022-12-20T05:25:33.059Z,89.29
2022-12-20T05:26:32.957Z,88.77
2022-12-20T05:27:30.518Z,88.86
2022-12-20T05:28:27.269Z,89.61
2022-12-20T05:29:23.866Z,89.98
2022-12-20T05:30:20.544Z,90.25
2022-12-20T05:31:17.315Z,90.28
2022-12-20T05:32:13.971Z,89.76
2022-12-20T05:33:12.737Z,88.99
2022-12-20T05:34:09.854Z,88.27
2022-12-20T05:35:06.719Z,88.16
2022-12-20T05:36:03.818Z,88.54
2022-12-20T05:37:00.485Z,89.34
2022-12-20T05:37:57.072Z,88.78
2022-12-20T05:38:56.747Z,89.20
2022-12-20T05:39:58.396Z,89.38
2022-12-20T05:40:55.089Z,89.36
2022-12-20T05:41:53.698Z,89.94
2022-12-20T05:42:50.425Z,89.51
2022-12-20T05:43:47.279Z,89.39
2022-12-20T05:44:44.017Z,89.59
2022-12-20T05:45:40.974Z,89.96
2022-12-20T05:46:37.774Z,89.93
2022-12-20T05:47:34.501Z,90.41
2022-12-20T05:48:31.248Z,90.69
2022-12-20T05:49:29.083Z,90.69
2022-12-20T05:50:26.153Z,90.65
2022-12-20T05:51:22.816Z,91.17
2022-12-20T05:52:19.570Z,91.18
2022-12-20T05:53:17.793Z,90.89
2022-12-20T05:54:14.365Z,91.28
2022-12-20T05:55:10.982Z,91.21
2022-12-20T05:56:07.811Z,91.15
2022-12-20T05:57:04.464Z,91.60
2022-12-20T05:58:01.063Z,91.25
2022-12-20T05:58:59.122Z,91.83
2022-12-20T05:59:55.722Z,91.45
2022-12-20T06:00:52.351Z,91.89
2022-12-20T06:01:49.027Z,91.65
2022-12-20T06:02:45.943Z,91.99
2022-12-20T06:03:42.873Z,91.77
2022-12-20T06:04:40.620Z,92.06
2022-12-20T06:05:38.577Z,92.32
2022-12-20T06:06:35.213Z,92.02
2022-12-20T06:07:32.026Z,92.03
2022-12-20T06:08:28.738Z,92.06
2022-12-20T06:09:25.571Z,91.86
2022-12-20T06:10:22.160Z,91.94
2022-12-20T06:11:18.750Z,92.04
2022-12-20T06:12:15.348Z,91.35
2022-12-20T06:13:11.933Z,92.10
2022-12-20T06:14:08.641Z,92.01
2022-12-20T06:15:05.634Z,91.67
2022-12-20T06:16:02.337Z,91.39
2022-12-20T06:16:59.238Z,91.43
2022-12-20T06:17:56.315Z,91.54
2022-12-20T06:18:53.377Z,90.98
2022-12-20T06:19:49.998Z,91.34
2022-12-20T06:20:51.529Z,91.47
2022-12-20T06:21:48.197Z,91.27
2022-12-20T06:22:45.208Z,90.57
2022-12-20T06:23:41.773Z,90.33
2022-12-20T06:24:44.313Z,89.92
2022-12-20T06:25:44.900Z,90.22
2022-12-20T06:26:41.680Z,90.34
2022-12-20T06:27:38.521Z,89.52
2022-12-20T06:28:36.009Z,89.10
2022-12-20T06:29:33.536Z,89.13
2022-12-20T06:30:33.829Z,88.61
2022-12-20T06:31:31.052Z,89.12
2022-12-20T06:32:27.752Z,88.23
2022-12-20T06:33:25.237Z,88.35
2022-12-20T06:34:22.739Z,87.79
2022-12-20T06:35:19.319Z,87.00
2022-12-20T06:36:16.020Z,85.43
2022-12-20T06:37:12.867Z,85.64
2022-12-20T06:38:09.449Z,86.37
2022-12-20T06:39:09.614Z,86.59
2022-12-20T06:40:09.543Z,85.28
2022-12-20T06:41:06.120Z,84.35
2022-12-20T06:42:02.790Z,84.58
2022-12-20T06:42:59.398Z,85.37
2022-12-20T06:43:55.976Z,85.46
2022-12-20T06:44:52.525Z,85.95
2022-12-20T06:45:49.225Z,85.43
2022-12-20T06:46:45.916Z,85.65
2022-12-20T06:47:42.485Z,85.06
2022-12-20T06:48:39.096Z,83.89
2022-12-20T06:49:35.713Z,83.27
2022-12-20T06:50:32.313Z,83.19
2022-12-20T06:51:28.893Z,84.27
2022-12-20T06:52:25.936Z,83.22
2022-12-20T06:53:22.805Z,83.25
2022-12-20T06:54:19.428Z,82.40
2022-12-20T06:55:16.157Z,82.04
2022-12-20T06:56:12.842Z,82.62
2022-12-20T06:57:09.461Z,82.80
2022-12-20T06:58:06.113Z,81.97
2022-12-20T06:59:02.721Z,81.58
2022-12-20T06:59:59.377Z,81.87
2022-12-20T07:00:56.103Z,81.90
2022-12-20T07:01:52.783Z,81.16
2022-12-20T07:02:49.723Z,80.16
2022-12-20T07:03:46.898Z,80.54
2022-12-20T07:04:43.584Z,80.86
2022-12-20T07:05:41.020Z,80.61
2022-12-20T07:06:37.827Z,81.17
2022-12-20T07:07:40.666Z,82.32
2022-12-20T07:08:41.090Z,81.91
2022-12-20T07:09:41.378Z,82.14
2022-12-20T07:10:38.242Z,80.96
2022-12-20T07:11:34.977Z,81.32
2022-12-20T07:12:33.323Z,81.61
2022-12-20T07:13:29.957Z,81.56
2022-12-20T07:14:26.754Z,81.49
2022-12-20T07:15:23.420Z,80.82
2022-12-20T07:16:20.179Z,79.99
2022-12-20T07:17:16.819Z,79.73
2022-12-20T07:18:13.392Z,79.88
2022-12-20T07:19:14.535Z,80.67
2022-12-20T07:20:14.014Z,80.91
2022-12-20T07:21:10.945Z,81.38
2022-12-20T07:22:07.629Z,80.43
2022-12-20T07:23:04.469Z,79.89
2022-12-20T07:24:01.577Z,80.03
2022-12-20T07:24:58.192Z,79.84
2022-12-20T07:26:00.292Z,80.19
2022-12-20T07:26:56.875Z,80.54
2022-12-20T07:27:53.575Z,79.08
2022-12-20T07:28:50.134Z,79.30
2022-12-20T07:29:46.704Z,80.00
2022-12-20T07:30:43.364Z,79.44
2022-12-20T07:31:40.276Z,78.47
2022-12-20T07:32:37.402Z,78.69
2022-12-20T07:33:34.721Z,79.96
2022-12-20T07:34:31.359Z,80.31
2022-12-20T07:35:27.956Z,79.76
2022-12-20T07:36:24.618Z,79.89
2022-12-20T07:37:21.591Z,80.40
2022-12-20T07:38:18.219Z,80.07
2022-12-20T07:39:15.069Z,80.05
2022-12-20T07:40:12.355Z,79.27
2022-12-20T07:41:16.840Z,79.25
2022-12-20T07:42:13.908Z,78.98
2022-12-20T07:43:10.991Z,77.98
2022-12-20T07:44:07.726Z,77.65
2022-12-20T07:45:04.578Z,78.17
2022-12-20T07:46:01.473Z,77.69
2022-12-20T07:46:58.696Z,77.86
2022-12-20T07:47:57.232Z,78.49
2022-12-20T07:48:53.905Z,78.87
2022-12-20T07:49:50.514Z,78.72
2022-12-20T07:50:47.475Z,79.29
2022-12-20T07:51:48.572Z,78.91
2022-12-20T07:52:47.261Z,78.82
2022-12-20T07:53:48.945Z,78.46
2022-12-20T07:54:51.654Z,78.12
2022-12-20T07:55:49.259Z,78.45
2022-12-20T07:56:50.576Z,77.81
2022-12-20T07:57:58.876Z,77.04
2022-12-20T07:58:58.841Z,76.82
2022-12-20T07:59:59.331Z,77.25
2022-12-20T08:00:57.905Z,76.50
2022-12-20T08:02:02.353Z,76.33
2022-12-20T08:03:17.019Z,77.02
2022-12-20T08:04:21.346Z,77.25
2022-12-20T08:05:18.101Z,77.50
2022-12-20T08:06:16.641Z,77.85
2022-12-20T08:07:13.400Z,77.25
2022-12-20T08:08:10.169Z,77.66
2022-12-20T08:09:07.197Z,76.99
2022-12-20T08:10:05.778Z,77.29
2022-12-20T08:11:03.902Z,76.79
2022-12-20T08:12:00.968Z,75.64
2022-12-20T08:12:58.068Z,74.87
2022-12-20T08:13:58.098Z,74.71
2022-12-20T08:14:56.492Z,74.60
2022-12-20T08:15:53.196Z,75.52
2022-12-20T08:16:49.851Z,75.82
2022-12-20T08:17:46.461Z,75.30
2022-12-20T08:18:43.273Z,76.02
2022-12-20T08:19:39.944Z,75.53
2022-12-20T08:20:36.571Z,75.65
2022-12-20T08:21:33.253Z,75.05
2022-12-20T08:22:29.883Z,76.07
2022-12-20T08:23:26.565Z,75.73
2022-12-20T08:24:23.353Z,75.57
2022-12-20T08:25:21.575Z,75.75
2022-12-20T08:26:18.800Z,74.80
2022-12-20T08:27:15.436Z,75.08
2022-12-20T08:28:12.097Z,74.98
2022-12-20T08:29:09.110Z,75.83
2022-12-20T08:30:08.564Z,76.00
2022-12-20T08:31:07.608Z,76.49
2022-12-20T08:32:04.480Z,75.78
2022-12-20T08:33:01.151Z,75.69
2022-12-20T08:33:57.769Z,75.10
2022-12-20T08:34:54.405Z,75.16
2022-12-20T08:35:58.309Z,75.13
2022-12-20T08:36:54.950Z,75.02
2022-12-20T08:37:52.872Z,75.11
2022-12-20T08:38:49.503Z,74.44
2022-12-20T08:39:46.120Z,74.42
2022-12-20T08:40:42.758Z,75.19
2022-12-20T08:41:39.379Z,73.53
2022-12-20T08:42:36.012Z,73.90
2022-12-20T08:43:35.145Z,73.39
2022-12-20T08:44:31.793Z,72.63
2022-12-20T08:45:28.386Z,73.16
2022-12-20T08:46:25.227Z,72.83
2022-12-20T08:47:21.996Z,73.49
2022-12-20T08:48:18.617Z,73.16
2022-12-20T08:49:15.315Z,73.08
2022-12-20T08:50:13.691Z,72.22
2022-12-20T08:51:11.945Z,71.33
2022-12-20T08:52:08.575Z,70.95
2022-12-20T08:53:05.151Z,71.53
2022-12-20T08:54:02.786Z,71.16
2022-12-20T08:55:01.672Z,71.84
2022-12-20T08:56:13.558Z,72.48
2022-12-20T08:57:10.267Z,71.90
2022-12-20T08:58:06.931Z,72.39
2022-12-20T08:59:03.590Z,72.00
2022-12-20T09:00:00.220Z,71.16
2022-12-20T09:01:04.604Z,70.29
2022-12-20T09:02:04.802Z,70.59
2022-12-20T09:03:01.703Z,69.42
2022-12-20T09:03:59.481Z,69.95
2022-12-20T09:04:56.834Z,69.62
2022-12-20T09:05:53.389Z,69.70
2022-12-20T09:06:50.057Z,69.16
2022-12-20T09:07:47.716Z,69.61
2022-12-20T09:08:44.735Z,68.56
2022-12-20T09:09:41.348Z,69.20
2022-12-20T09:10:37.959Z,68.81
2022-12-20T09:11:34.617Z,68.14
2022-12-20T09:12:31.259Z,69.10
2022-12-20T09:13:27.882Z,69.23
2022-12-20T09:14:25.805Z,69.74
2022-12-20T09:15:22.463Z,69.07
2022-12-20T09:16:21.899Z,69.03
2022-12-20T09:17:18.594Z,68.42
2022-12-20T09:18:15.191Z,68.86
2022-12-20T09:19:14.143Z,68.41
2022-12-20T09:20:10.879Z,67.53
2022-12-20T09:21:09.591Z,68.26
2022-12-20T09:22:06.280Z,68.75
2022-12-20T09:23:02.885Z,68.56
2022-12-20T09:23:59.675Z,68.76
2022-12-20T09:24:56.916Z,68.39
2022-12-20T09:25:54.229Z,67.56
2022-12-20T09:26:52.291Z,68.71
2022-12-20T09:27:49.025Z,67.80
2022-12-20T09:28:46.333Z,66.48
2022-12-20T09:29:43.093Z,65.91
2022-12-20T09:30:39.772Z,66.86
2022-12-20T09:31:37.815Z,67.76
2022-12-20T09:32:34.620Z,68.60
2022-12-20T09:33:32.751Z,67.83
2022-12-20T09:34:29.428Z,67.93
2022-12-20T09:35:26.849Z,67.64
2022-12-20T09:36:24.754Z,67.92
2022-12-20T09:37:21.449Z,68.08
2022-12-20T09:38:18.056Z,68.20
2022-12-20T09:39:14.666Z,66.99
2022-12-20T09:40:22.698Z,66.23
2022-12-20T09:41:38.317Z,68.01
2022-12-20T09:42:35.063Z,67.61
2022-12-20T09:43:33.216Z,67.86
2022-12-20T09:44:36.008Z,68.80
2022-12-20T09:45:36.759Z,66.94
2022-12-20T09:46:33.551Z,66.94
2022-12-20T09:47:31.854Z,66.69
2022-12-20T09:48:38.992Z,67.17
2022-12-20T09:49:39.445Z,68.15
2022-12-20T09:50:45.113Z,68.64
2022-12-20T09:52:02.922Z,68.18
2022-12-20T09:53:06.433Z,66.65
2022-12-20T09:54:47.378Z,68.26
2022-12-20T09:55:52.245Z,69.52
2022-12-20T09:57:03.127Z,68.61
2022-12-20T09:58:19.132Z,67.61
2022-12-20T09:59:19.717Z,67.88
2022-12-20T10:00:19.456Z,67.87
2022-12-20T10:01:26.064Z,67.14
2022-12-20T10:02:55.595Z,66.50
2022-12-20T10:03:43.100Z,66.34
2022-12-20T10:04:40.082Z,66.96
2022-12-20T10:05:54.182Z,66.78
2022-12-20T10:07:26.105Z,67.82
2022-12-20T10:08:27.711Z,68.63
2022-12-20T10:10:08.817Z,66.43
2022-12-20T10:11:13.058Z,65.95
2022-12-20T10:12:12.599Z,66.81
2022-12-20T10:13:15.573Z,66.07
2022-12-20T10:14:17.877Z,65.42
2022-12-20T10:15:26.968Z,64.92
2022-12-20T10:16:26.408Z,64.90
2022-12-20T10:17:38.061Z,65.03
2022-12-20T10:19:06.867Z,64.22
2022-12-20T10:20:14.229Z,64.59
2022-12-20T10:21:29.632Z,64.15
2022-12-20T10:22:39.507Z,64.50
2022-12-20T10:23:58.018Z,64.93
2022-12-20T10:25:19.838Z,65.14
2022-12-20T10:26:16.383Z,65.08
2022-12-20T10:27:21.458Z,64.40
2022-12-20T10:28:21.238Z,65.84
2022-12-20T10:29:19.463Z,64.97
2022-12-20T10:30:19.525Z,64.15
2022-12-20T10:31:18.610Z,63.87
2022-12-20T10:32:18.868Z,65.03
2022-12-20T10:33:22.257Z,65.12
2022-12-20T10:34:18.931Z,64.46
2022-12-20T10:35:15.548Z,63.56
2022-12-20T10:36:34.811Z,62.98
2022-12-20T10:37:31.449Z,62.97
2022-12-20T10:38:44.878Z,62.65
2022-12-20T10:39:43.801Z,63.33
2022-12-20T10:42:22.350Z,63.98
2022-12-20T10:43:23.596Z,64.94
2022-12-20T10:44:20.144Z,64.85
2022-12-20T10:45:16.720Z,63.12
2022-12-20T10:46:16.794Z,62.80
2022-12-20T10:47:36.731Z,62.24
2022-12-20T10:48:42.524Z,63.09
2022-12-20T10:49:41.129Z,61.80
2022-12-20T10:50:37.897Z,61.91
2022-12-20T10:51:34.538Z,62.05
2022-12-20T10:52:31.290Z,61.05
2022-12-20T10:53:29.066Z,62.26
2022-12-20T10:54:36.128Z,63.04
2022-12-20T10:55:36.989Z,62.25
2022-12-20T10:56:36.578Z,62.39
2022-12-20T10:57:33.655Z,63.71
2022-12-20T10:58:36.125Z,62.96
2022-12-20T10:59:38.290Z,62.71
2022-12-20T11:00:35.073Z,63.19
2022-12-20T11:01:35.588Z,62.46
2022-12-20T11:02:40.977Z,62.29
2022-12-20T11:04:03.161Z,61.04
2022-12-20T11:05:06.370Z,63.42
2022-12-20T11:06:04.584Z,62.70
2022-12-20T11:07:04.151Z,63.28
2022-12-20T11:08:36.071Z,62.02
2022-12-20T11:09:36.333Z,62.56
2022-12-20T11:10:33.243Z,63.11
2022-12-20T11:11:30.182Z,62.95
2022-12-20T11:12:26.900Z,62.11
2022-12-20T11:13:29.491Z,61.93
2022-12-20T11:14:30.281Z,61.86
2022-12-20T11:15:35.069Z,62.90
2022-12-20T11:16:41.774Z,62.85
2022-12-20T11:17:46.691Z,63.23
2022-12-20T11:19:03.794Z,61.91
2022-12-20T11:20:09.536Z,62.41
2022-12-20T11:21:11.120Z,60.61
2022-12-20T11:22:20.257Z,62.14
2022-12-20T11:23:39.077Z,62.74
2022-12-20T11:24:57.904Z,62.18
2022-12-20T11:26:35.454Z,61.51
2022-12-20T11:27:44.631Z,61.63
2022-12-20T11:29:08.727Z,60.77
2022-12-20T11:30:14.109Z,61.28
2022-12-20T11:31:21.903Z,61.59
2022-12-20T11:32:32.226Z,59.25
2022-12-20T11:33:50.928Z,61.18
2022-12-20T11:35:23.981Z,60.81
2022-12-20T11:36:44.423Z,58.66
2022-12-20T11:37:54.129Z,58.83
2022-12-20T11:39:05.169Z,60.16
2022-12-20T11:40:31.644Z,60.77
2022-12-20T11:41:37.161Z,62.09
2022-12-20T11:42:45.846Z,60.80
2022-12-20T11:44:23.121Z,62.12
2022-12-20T11:46:00.760Z,60.39
2022-12-20T11:47:12.295Z,60.93
2022-12-20T11:48:21.091Z,58.59
2022-12-20T11:49:48.416Z,60.06
2022-12-20T11:51:26.751Z,59.00
2022-12-20T11:52:29.789Z,60.19
2022-12-20T11:53:42.201Z,59.09
2022-12-20T11:54:46.234Z,59.46
2022-12-20T11:55:46.833Z,59.53
2022-12-20T11:56:47.203Z,59.05
2022-12-20T11:58:17.400Z,59.88
2022-12-20T11:59:42.758Z,60.97
2022-12-20T12:00:41.729Z,59.98
2022-12-20T12:01:48.609Z,60.99
2022-12-20T12:03:04.414Z,60.65
2022-12-20T12:04:26.242Z,59.65
2022-12-20T12:05:44.934Z,61.19
2022-12-20T12:06:47.059Z,61.37
2022-12-20T12:07:49.180Z,61.27
2022-12-20T12:09:13.453Z,61.58
2022-12-20T12:10:22.197Z,62.88
2022-12-20T12:12:05.037Z,62.06
2022-12-20T12:13:27.466Z,60.59
2022-12-20T12:14:42.481Z,59.26
2022-12-20T12:15:56.673Z,59.06
2022-12-20T12:16:59.657Z,58.95
2022-12-20T12:18:19.760Z,58.13
2022-12-20T12:19:17.071Z,58.80
2022-12-20T12:20:38.047Z,58.81
2022-12-20T12:21:40.889Z,58.92
2022-12-20T12:22:40.571Z,58.73
2022-12-20T12:23:51.993Z,58.92
2022-12-20T12:24:56.274Z,58.23
2022-12-20T12:25:52.992Z,57.90
2022-12-20T12:26:49.758Z,58.58
2022-12-20T12:27:46.389Z,58.60
2022-12-20T12:28:42.983Z,57.86
2022-12-20T12:29:39.544Z,59.71
2022-12-20T12:30:48.274Z,58.32
2022-12-20T12:32:22.085Z,59.99
2022-12-20T12:33:37.864Z,58.21
2022-12-20T12:34:54.259Z,58.78
2022-12-20T12:35:50.824Z,59.83
2022-12-20T12:37:11.860Z,59.06
2022-12-20T12:38:42.100Z,58.66
2022-12-20T12:39:52.365Z,57.87
2022-12-20T12:41:00.959Z,58.23
2022-12-20T12:42:12.376Z,56.62
2022-12-20T12:43:40.979Z,57.40
2022-12-20T12:44:54.587Z,57.42
2022-12-20T12:46:03.142Z,58.55
2022-12-20T12:47:05.716Z,58.31
2022-12-20T12:48:08.397Z,58.48
2022-12-20T12:49:12.259Z,58.09
2022-12-20T12:50:20.464Z,58.03
2022-12-20T12:51:25.167Z,57.67
2022-12-20T12:52:53.663Z,57.19
2022-12-20T12:53:53.862Z,57.05
2022-12-20T12:54:51.598Z,58.07
2022-12-20T12:56:02.380Z,57.98
2022-12-20T12:57:14.800Z,58.54
2022-12-20T12:58:24.494Z,56.76
2022-12-20T12:59:32.973Z,56.91
2022-12-20T13:00:58.870Z,58.23
2022-12-20T13:02:17.762Z,58.58
2022-12-20T13:03:16.754Z,58.43
2022-12-20T13:04:22.557Z,57.88
2022-12-20T13:05:26.009Z,57.84
2022-12-20T13:06:25.901Z,58.85
2022-12-20T13:07:40.795Z,58.48